sensor_id;sensor_type;location;lat;lon;timestamp;temperature;humidity
21246;DHT22;10781;50.928;4.440;2022-10-22T00:01:11;17.20;99.90
21246;DHT22;10781;50.928;4.440;2022-10-22T00:03:37;17.20;99.90
21246;DHT22;10781;50.928;4.440;2022-10-22T00:06:03;17.30;99.90
21246;DHT22;10781;50.928;4.440;2022-10-22T00:08:28;17.30;99.90
21246;DHT22;10781;50.928;4.440;2022-10-22T00:10:54;17.30;99.90
21246;DHT22;10781;50.928;4.440;2022-10-22T00:13:20;17.20;99.90
21246;DHT22;10781;50.928;4.440;2022-10-22T00:15:46;17.20;99.90
21246;DHT22;10781;50.928;4.440;2022-10-22T00:18:11;17.30;99.90
21246;DHT22;10781;50.928;4.440;2022-10-22T00:20:37;17.30;99.90
21246;DHT22;10781;50.928;4.440;2022-10-22T00:23:02;17.30;99.90
21246;DHT22;10781;50.928;4.440;2022-10-22T00:25:28;17.20;99.90
21246;DHT22;10781;50.928;4.440;2022-10-22T00:27:54;17.30;99.90
21246;DHT22;10781;50.928;4.440;2022-10-22T00:30:19;17.20;99.90
21246;DHT22;10781;50.928;4.440;2022-10-22T00:32:45;17.20;99.90
21246;DHT22;10781;50.928;4.440;2022-10-22T00:35:10;17.20;99.90
21246;DHT22;10781;50.928;4.440;2022-10-22T00:37:36;17.00;99.90
21246;DHT22;10781;50.928;4.440;2022-10-22T00:40:03;17.00;99.90
21246;DHT22;10781;50.928;4.440;2022-10-22T00:42:28;17.10;99.90
21246;DHT22;10781;50.928;4.440;2022-10-22T00:47:45;17.00;99.90
21246;DHT22;10781;50.928;4.440;2022-10-22T00:50:17;17.00;99.90
21246;DHT22;10781;50.928;4.440;2022-10-22T00:52:45;17.00;99.90
21246;DHT22;10781;50.928;4.440;2022-10-22T00:55:12;17.10;99.90
21246;DHT22;10781;50.928;4.440;2022-10-22T00:57:38;17.00;99.90
21246;DHT22;10781;50.928;4.440;2022-10-22T01:00:05;16.90;99.90
21246;DHT22;10781;50.928;4.440;2022-10-22T01:02:31;17.10;99.90
21246;DHT22;10781;50.928;4.440;2022-10-22T01:04:57;17.10;99.90
21246;DHT22;10781;50.928;4.440;2022-10-22T01:07:23;17.10;99.90
21246;DHT22;10781;50.928;4.440;2022-10-22T01:13:16;17.20;99.90
21246;DHT22;10781;50.928;4.440;2022-10-22T01:16:09;17.00;99.90
21246;DHT22;10781;50.928;4.440;2022-10-22T01:18:56;16.90;99.90
21246;DHT22;10781;50.928;4.440;2022-10-22T01:21:35;16.90;99.90
21246;DHT22;10781;50.928;4.440;2022-10-22T01:29:49;17.00;99.90
21246;DHT22;10781;50.928;4.440;2022-10-22T01:32:24;17.00;99.90
21246;DHT22;10781;50.928;4.440;2022-10-22T01:34:59;16.80;99.90
21246;DHT22;10781;50.928;4.440;2022-10-22T01:37:29;16.80;99.90
21246;DHT22;10781;50.928;4.440;2022-10-22T01:39:56;16.90;99.90
21246;DHT22;10781;50.928;4.440;2022-10-22T01:42:24;17.00;99.90
21246;DHT22;10781;50.928;4.440;2022-10-22T01:44:49;17.10;99.90
21246;DHT22;10781;50.928;4.440;2022-10-22T01:47:35;17.00;99.90
21246;DHT22;10781;50.928;4.440;2022-10-22T01:50:22;17.10;99.90
21246;DHT22;10781;50.928;4.440;2022-10-22T01:53:03;17.20;99.90
21246;DHT22;10781;50.928;4.440;2022-10-22T01:56:00;17.30;99.90
21246;DHT22;10781;50.928;4.440;2022-10-22T02:01:17;17.10;99.90
21246;DHT22;10781;50.928;4.440;2022-10-22T02:06:37;17.00;99.90
21246;DHT22;10781;50.928;4.440;2022-10-22T02:09:04;17.00;99.90
21246;DHT22;10781;50.928;4.440;2022-10-22T02:11:31;17.00;99.90
21246;DHT22;10781;50.928;4.440;2022-10-22T02:13:59;17.10;99.90
21246;DHT22;10781;50.928;4.440;2022-10-22T02:16:40;17.20;99.90
21246;DHT22;10781;50.928;4.440;2022-10-22T02:19:18;16.90;99.90
21246;DHT22;10781;50.928;4.440;2022-10-22T02:21:48;16.90;99.90
21246;DHT22;10781;50.928;4.440;2022-10-22T02:24:14;17.00;99.90
21246;DHT22;10781;50.928;4.440;2022-10-22T02:29:45;16.90;99.90
21246;DHT22;10781;50.928;4.440;2022-10-22T02:32:17;16.90;99.90
21246;DHT22;10781;50.928;4.440;2022-10-22T02:34:45;16.90;99.90
21246;DHT22;10781;50.928;4.440;2022-10-22T02:37:12;17.00;99.90
21246;DHT22;10781;50.928;4.440;2022-10-22T02:39:39;16.90;99.90
21246;DHT22;10781;50.928;4.440;2022-10-22T02:42:05;16.70;99.90
21246;DHT22;10781;50.928;4.440;2022-10-22T02:44:30;16.60;99.90
21246;DHT22;10781;50.928;4.440;2022-10-22T02:46:57;16.60;99.90
21246;DHT22;10781;50.928;4.440;2022-10-22T02:49:22;16.70;99.90
21246;DHT22;10781;50.928;4.440;2022-10-22T02:51:48;16.80;99.90
21246;DHT22;10781;50.928;4.440;2022-10-22T02:54:14;16.70;99.90
21246;DHT22;10781;50.928;4.440;2022-10-22T02:56:39;16.70;99.90
21246;DHT22;10781;50.928;4.440;2022-10-22T02:59:05;16.80;99.90
21246;DHT22;10781;50.928;4.440;2022-10-22T03:01:31;16.80;99.90
21246;DHT22;10781;50.928;4.440;2022-10-22T03:03:57;16.80;99.90
21246;DHT22;10781;50.928;4.440;2022-10-22T03:06:22;16.80;99.90
21246;DHT22;10781;50.928;4.440;2022-10-22T03:08:48;16.90;99.90
21246;DHT22;10781;50.928;4.440;2022-10-22T03:11:13;16.90;99.90
21246;DHT22;10781;50.928;4.440;2022-10-22T03:13:39;17.00;99.90
21246;DHT22;10781;50.928;4.440;2022-10-22T03:16:05;16.90;99.90
21246;DHT22;10781;50.928;4.440;2022-10-22T03:18:30;17.00;99.90
21246;DHT22;10781;50.928;4.440;2022-10-22T03:21:08;17.00;99.90
21246;DHT22;10781;50.928;4.440;2022-10-22T03:23:35;16.90;99.90
21246;DHT22;10781;50.928;4.440;2022-10-22T03:26:01;16.90;99.90
21246;DHT22;10781;50.928;4.440;2022-10-22T03:28:27;16.90;99.90
21246;DHT22;10781;50.928;4.440;2022-10-22T03:30:52;16.80;99.90
21246;DHT22;10781;50.928;4.440;2022-10-22T03:33:18;16.90;99.90
21246;DHT22;10781;50.928;4.440;2022-10-22T03:35:45;16.80;99.90
21246;DHT22;10781;50.928;4.440;2022-10-22T03:38:12;16.70;99.90
21246;DHT22;10781;50.928;4.440;2022-10-22T03:40:40;16.60;99.90
21246;DHT22;10781;50.928;4.440;2022-10-22T03:43:06;16.80;99.90
21246;DHT22;10781;50.928;4.440;2022-10-22T03:45:32;16.80;99.90
21246;DHT22;10781;50.928;4.440;2022-10-22T03:47:58;16.80;99.90
21246;DHT22;10781;50.928;4.440;2022-10-22T03:50:23;16.80;99.90
21246;DHT22;10781;50.928;4.440;2022-10-22T03:52:49;16.90;99.90
21246;DHT22;10781;50.928;4.440;2022-10-22T03:55:15;17.00;99.90
21246;DHT22;10781;50.928;4.440;2022-10-22T03:57:40;16.90;99.90
21246;DHT22;10781;50.928;4.440;2022-10-22T04:00:08;16.90;99.90
21246;DHT22;10781;50.928;4.440;2022-10-22T04:02:33;16.90;99.90
21246;DHT22;10781;50.928;4.440;2022-10-22T04:04:59;17.00;99.90
21246;DHT22;10781;50.928;4.440;2022-10-22T04:07:25;17.00;99.90
21246;DHT22;10781;50.928;4.440;2022-10-22T04:09:50;17.00;99.90
21246;DHT22;10781;50.928;4.440;2022-10-22T04:12:16;17.00;99.90
21246;DHT22;10781;50.928;4.440;2022-10-22T04:14:41;17.10;99.90
21246;DHT22;10781;50.928;4.440;2022-10-22T04:17:07;17.10;99.90
21246;DHT22;10781;50.928;4.440;2022-10-22T04:19:33;17.20;99.90
21246;DHT22;10781;50.928;4.440;2022-10-22T04:21:59;17.10;99.90
21246;DHT22;10781;50.928;4.440;2022-10-22T04:24:25;17.10;99.90
21246;DHT22;10781;50.928;4.440;2022-10-22T04:26:53;16.90;99.90
21246;DHT22;10781;50.928;4.440;2022-10-22T04:29:19;16.80;99.90
21246;DHT22;10781;50.928;4.440;2022-10-22T04:31:45;16.70;99.90
21246;DHT22;10781;50.928;4.440;2022-10-22T04:34:10;16.70;99.90
21246;DHT22;10781;50.928;4.440;2022-10-22T04:36:36;16.70;99.90
21246;DHT22;10781;50.928;4.440;2022-10-22T04:39:03;16.60;99.90
21246;DHT22;10781;50.928;4.440;2022-10-22T04:41:34;16.60;99.90
21246;DHT22;10781;50.928;4.440;2022-10-22T04:44:01;16.50;99.90
21246;DHT22;10781;50.928;4.440;2022-10-22T04:46:29;16.50;99.90
21246;DHT22;10781;50.928;4.440;2022-10-22T04:48:54;16.40;99.90
21246;DHT22;10781;50.928;4.440;2022-10-22T04:51:22;16.50;99.90
21246;DHT22;10781;50.928;4.440;2022-10-22T04:53:48;16.50;99.90
21246;DHT22;10781;50.928;4.440;2022-10-22T04:58:45;16.30;99.90
21246;DHT22;10781;50.928;4.440;2022-10-22T05:01:19;16.40;99.90
21246;DHT22;10781;50.928;4.440;2022-10-22T05:03:45;16.30;99.90
21246;DHT22;10781;50.928;4.440;2022-10-22T05:06:12;16.40;99.90
21246;DHT22;10781;50.928;4.440;2022-10-22T05:08:38;16.40;99.90
21246;DHT22;10781;50.928;4.440;2022-10-22T05:13:36;16.40;99.90
21246;DHT22;10781;50.928;4.440;2022-10-22T05:16:02;16.40;99.90
21246;DHT22;10781;50.928;4.440;2022-10-22T05:18:28;16.50;99.90
21246;DHT22;10781;50.928;4.440;2022-10-22T05:20:53;16.50;99.90
21246;DHT22;10781;50.928;4.440;2022-10-22T05:23:19;16.40;99.90
21246;DHT22;10781;50.928;4.440;2022-10-22T05:25:44;16.40;99.90
21246;DHT22;10781;50.928;4.440;2022-10-22T05:28:10;16.40;99.90
21246;DHT22;10781;50.928;4.440;2022-10-22T05:30:36;16.40;99.90
21246;DHT22;10781;50.928;4.440;2022-10-22T05:33:01;16.70;99.90
21246;DHT22;10781;50.928;4.440;2022-10-22T05:35:27;16.70;99.90
21246;DHT22;10781;50.928;4.440;2022-10-22T05:37:52;16.70;99.90
21246;DHT22;10781;50.928;4.440;2022-10-22T05:40:18;16.90;99.90
21246;DHT22;10781;50.928;4.440;2022-10-22T05:42:43;16.90;99.90
21246;DHT22;10781;50.928;4.440;2022-10-22T05:45:09;16.90;99.90
21246;DHT22;10781;50.928;4.440;2022-10-22T05:47:35;16.90;99.90
21246;DHT22;10781;50.928;4.440;2022-10-22T05:50:00;16.90;99.90
21246;DHT22;10781;50.928;4.440;2022-10-22T05:52:26;16.80;99.90
21246;DHT22;10781;50.928;4.440;2022-10-22T05:54:51;16.80;99.90
21246;DHT22;10781;50.928;4.440;2022-10-22T05:57:17;16.90;99.90
21246;DHT22;10781;50.928;4.440;2022-10-22T05:59:43;16.90;99.90
21246;DHT22;10781;50.928;4.440;2022-10-22T06:02:09;16.90;99.90
21246;DHT22;10781;50.928;4.440;2022-10-22T06:04:34;16.90;99.90
21246;DHT22;10781;50.928;4.440;2022-10-22T06:07:00;16.90;99.90
21246;DHT22;10781;50.928;4.440;2022-10-22T06:09:29;16.80;99.90
21246;DHT22;10781;50.928;4.440;2022-10-22T06:11:56;16.80;99.90
21246;DHT22;10781;50.928;4.440;2022-10-22T06:14:22;16.70;99.90
21246;DHT22;10781;50.928;4.440;2022-10-22T06:16:49;16.70;99.90
21246;DHT22;10781;50.928;4.440;2022-10-22T06:19:16;16.80;99.90
21246;DHT22;10781;50.928;4.440;2022-10-22T06:21:43;16.80;99.90
21246;DHT22;10781;50.928;4.440;2022-10-22T06:24:09;16.70;99.90
21246;DHT22;10781;50.928;4.440;2022-10-22T06:26:35;16.80;99.90
21246;DHT22;10781;50.928;4.440;2022-10-22T06:29:02;16.70;99.90
21246;DHT22;10781;50.928;4.440;2022-10-22T06:31:28;16.60;99.90
21246;DHT22;10781;50.928;4.440;2022-10-22T06:33:55;16.60;99.90
21246;DHT22;10781;50.928;4.440;2022-10-22T06:36:22;16.80;99.90
21246;DHT22;10781;50.928;4.440;2022-10-22T06:38:52;16.90;99.90
21246;DHT22;10781;50.928;4.440;2022-10-22T06:41:19;16.70;99.90
21246;DHT22;10781;50.928;4.440;2022-10-22T06:43:45;16.80;99.90
21246;DHT22;10781;50.928;4.440;2022-10-22T06:46:17;17.00;99.90
21246;DHT22;10781;50.928;4.440;2022-10-22T06:48:47;17.00;99.90
21246;DHT22;10781;50.928;4.440;2022-10-22T06:51:13;17.00;99.90
21246;DHT22;10781;50.928;4.440;2022-10-22T06:53:39;17.00;99.90
21246;DHT22;10781;50.928;4.440;2022-10-22T06:56:06;17.20;99.90
21246;DHT22;10781;50.928;4.440;2022-10-22T06:58:32;17.40;99.90
21246;DHT22;10781;50.928;4.440;2022-10-22T07:01:08;17.20;99.90
21246;DHT22;10781;50.928;4.440;2022-10-22T07:03:35;17.20;99.90
21246;DHT22;10781;50.928;4.440;2022-10-22T07:06:02;17.10;99.90
21246;DHT22;10781;50.928;4.440;2022-10-22T07:08:28;17.10;99.90
21246;DHT22;10781;50.928;4.440;2022-10-22T07:10:54;17.10;99.90
21246;DHT22;10781;50.928;4.440;2022-10-22T07:13:21;17.20;99.90
21246;DHT22;10781;50.928;4.440;2022-10-22T07:15:53;17.20;99.90
21246;DHT22;10781;50.928;4.440;2022-10-22T07:18:19;17.40;99.90
21246;DHT22;10781;50.928;4.440;2022-10-22T07:20:46;17.40;99.90
21246;DHT22;10781;50.928;4.440;2022-10-22T07:23:12;17.50;99.90
21246;DHT22;10781;50.928;4.440;2022-10-22T07:25:38;17.50;99.90
21246;DHT22;10781;50.928;4.440;2022-10-22T07:28:03;17.50;99.90
21246;DHT22;10781;50.928;4.440;2022-10-22T07:30:29;17.50;99.90
21246;DHT22;10781;50.928;4.440;2022-10-22T07:32:54;17.30;99.90
21246;DHT22;10781;50.928;4.440;2022-10-22T07:35:20;17.20;99.90
21246;DHT22;10781;50.928;4.440;2022-10-22T07:37:46;17.20;99.90
21246;DHT22;10781;50.928;4.440;2022-10-22T07:40:11;17.20;99.90
21246;DHT22;10781;50.928;4.440;2022-10-22T07:42:37;17.30;99.90
21246;DHT22;10781;50.928;4.440;2022-10-22T07:45:03;17.50;99.90
21246;DHT22;10781;50.928;4.440;2022-10-22T07:47:28;17.60;99.90
21246;DHT22;10781;50.928;4.440;2022-10-22T07:49:54;17.60;99.90
21246;DHT22;10781;50.928;4.440;2022-10-22T07:52:20;17.60;99.90
21246;DHT22;10781;50.928;4.440;2022-10-22T07:54:45;17.60;99.90
21246;DHT22;10781;50.928;4.440;2022-10-22T07:57:11;17.70;99.90
21246;DHT22;10781;50.928;4.440;2022-10-22T07:59:36;17.70;99.90
21246;DHT22;10781;50.928;4.440;2022-10-22T08:02:02;18.10;99.90
21246;DHT22;10781;50.928;4.440;2022-10-22T08:04:28;18.10;99.90
21246;DHT22;10781;50.928;4.440;2022-10-22T08:06:53;18.20;99.90
21246;DHT22;10781;50.928;4.440;2022-10-22T08:09:19;18.20;99.90
21246;DHT22;10781;50.928;4.440;2022-10-22T08:11:44;18.10;99.90
21246;DHT22;10781;50.928;4.440;2022-10-22T08:14:11;18.20;99.90
21246;DHT22;10781;50.928;4.440;2022-10-22T08:16:37;18.50;99.90
21246;DHT22;10781;50.928;4.440;2022-10-22T08:19:02;18.50;99.90
21246;DHT22;10781;50.928;4.440;2022-10-22T08:21:28;18.60;99.90
21246;DHT22;10781;50.928;4.440;2022-10-22T08:23:53;18.80;99.90
21246;DHT22;10781;50.928;4.440;2022-10-22T08:26:19;18.80;99.90
21246;DHT22;10781;50.928;4.440;2022-10-22T08:28:45;18.40;99.90
21246;DHT22;10781;50.928;4.440;2022-10-22T08:31:10;18.30;99.90
21246;DHT22;10781;50.928;4.440;2022-10-22T08:33:37;18.70;99.90
21246;DHT22;10781;50.928;4.440;2022-10-22T08:36:03;18.70;99.90
21246;DHT22;10781;50.928;4.440;2022-10-22T08:38:29;18.70;99.90
21246;DHT22;10781;50.928;4.440;2022-10-22T08:41:07;18.60;99.90
21246;DHT22;10781;50.928;4.440;2022-10-22T08:43:53;18.50;99.90
21246;DHT22;10781;50.928;4.440;2022-10-22T08:49:06;18.60;99.90
21246;DHT22;10781;50.928;4.440;2022-10-22T08:51:35;18.70;99.90
21246;DHT22;10781;50.928;4.440;2022-10-22T08:59:46;19.20;99.90
21246;DHT22;10781;50.928;4.440;2022-10-22T09:07:38;19.50;99.90
21246;DHT22;10781;50.928;4.440;2022-10-22T09:10:04;19.70;99.90
21246;DHT22;10781;50.928;4.440;2022-10-22T09:12:30;19.50;99.90
21246;DHT22;10781;50.928;4.440;2022-10-22T09:14:55;19.40;99.90
21246;DHT22;10781;50.928;4.440;2022-10-22T09:17:32;19.50;99.90
21246;DHT22;10781;50.928;4.440;2022-10-22T09:20:19;19.40;99.90
21246;DHT22;10781;50.928;4.440;2022-10-22T09:25:56;19.30;99.90
21246;DHT22;10781;50.928;4.440;2022-10-22T09:28:22;19.30;99.90
21246;DHT22;10781;50.928;4.440;2022-10-22T09:30:48;19.30;99.90
21246;DHT22;10781;50.928;4.440;2022-10-22T09:33:25;19.50;99.90
21246;DHT22;10781;50.928;4.440;2022-10-22T09:35:54;19.50;99.90
21246;DHT22;10781;50.928;4.440;2022-10-22T09:38:27;19.80;99.90
21246;DHT22;10781;50.928;4.440;2022-10-22T09:40:56;20.80;99.90
21246;DHT22;10781;50.928;4.440;2022-10-22T09:43:22;20.70;99.90
21246;DHT22;10781;50.928;4.440;2022-10-22T09:45:55;20.70;99.90
21246;DHT22;10781;50.928;4.440;2022-10-22T09:48:27;20.50;99.90
21246;DHT22;10781;50.928;4.440;2022-10-22T09:51:03;20.60;99.90
21246;DHT22;10781;50.928;4.440;2022-10-22T09:54:15;20.50;99.90
21246;DHT22;10781;50.928;4.440;2022-10-22T09:56:28;20.50;99.90
21246;DHT22;10781;50.928;4.440;2022-10-22T09:58:57;20.80;99.90
21246;DHT22;10781;50.928;4.440;2022-10-22T10:01:34;20.80;99.90
21246;DHT22;10781;50.928;4.440;2022-10-22T10:04:09;21.00;99.90
21246;DHT22;10781;50.928;4.440;2022-10-22T10:06:37;21.30;99.90
21246;DHT22;10781;50.928;4.440;2022-10-22T10:09:16;21.20;99.90
21246;DHT22;10781;50.928;4.440;2022-10-22T10:14:58;21.10;99.90
21246;DHT22;10781;50.928;4.440;2022-10-22T10:23:15;21.90;99.90
21246;DHT22;10781;50.928;4.440;2022-10-22T10:25:55;21.80;99.90
21246;DHT22;10781;50.928;4.440;2022-10-22T10:36:05;22.10;99.90
21246;DHT22;10781;50.928;4.440;2022-10-22T10:47:32;23.20;99.90
21246;DHT22;10781;50.928;4.440;2022-10-22T10:50:25;23.40;99.90
21246;DHT22;10781;50.928;4.440;2022-10-22T10:53:25;23.10;99.90
21246;DHT22;10781;50.928;4.440;2022-10-22T10:59:07;23.00;99.90
21246;DHT22;10781;50.928;4.440;2022-10-22T11:07:48;25.90;99.90
21246;DHT22;10781;50.928;4.440;2022-10-22T11:10:26;28.10;99.90
21246;DHT22;10781;50.928;4.440;2022-10-22T11:12:59;29.20;99.90
21246;DHT22;10781;50.928;4.440;2022-10-22T11:15:32;29.40;99.90
21246;DHT22;10781;50.928;4.440;2022-10-22T11:18:31;30.80;99.90
21246;DHT22;10781;50.928;4.440;2022-10-22T11:24:19;30.40;99.00
21246;DHT22;10781;50.928;4.440;2022-10-22T11:26:54;28.90;99.10
21246;DHT22;10781;50.928;4.440;2022-10-22T11:29:26;28.50;99.90
21246;DHT22;10781;50.928;4.440;2022-10-22T11:31:54;27.60;99.90
21246;DHT22;10781;50.928;4.440;2022-10-22T11:34:46;27.80;99.90
21246;DHT22;10781;50.928;4.440;2022-10-22T11:37:13;30.10;99.70
21246;DHT22;10781;50.928;4.440;2022-10-22T11:39:48;31.30;96.90
21246;DHT22;10781;50.928;4.440;2022-10-22T11:42:30;31.50;96.30
21246;DHT22;10781;50.928;4.440;2022-10-22T11:45:06;32.20;92.70
21246;DHT22;10781;50.928;4.440;2022-10-22T11:47:56;32.00;92.60
21246;DHT22;10781;50.928;4.440;2022-10-22T12:01:16;30.00;89.70
21246;DHT22;10781;50.928;4.440;2022-10-22T12:04:13;29.50;91.00
21246;DHT22;10781;50.928;4.440;2022-10-22T12:06:28;27.20;95.50
21246;DHT22;10781;50.928;4.440;2022-10-22T12:09:13;27.20;96.00
21246;DHT22;10781;50.928;4.440;2022-10-22T12:11:46;26.80;97.30
21246;DHT22;10781;50.928;4.440;2022-10-22T12:14:37;26.60;98.10
21246;DHT22;10781;50.928;4.440;2022-10-22T12:17:12;25.90;99.90
21246;DHT22;10781;50.928;4.440;2022-10-22T12:19:41;24.50;99.90
21246;DHT22;10781;50.928;4.440;2022-10-22T12:22:22;24.60;99.90
21246;DHT22;10781;50.928;4.440;2022-10-22T12:24:52;26.00;99.90
21246;DHT22;10781;50.928;4.440;2022-10-22T12:29:46;27.90;99.90
21246;DHT22;10781;50.928;4.440;2022-10-22T12:32:13;27.90;99.90
21246;DHT22;10781;50.928;4.440;2022-10-22T12:34:48;28.70;97.60
21246;DHT22;10781;50.928;4.440;2022-10-22T12:37:15;29.50;96.50
21246;DHT22;10781;50.928;4.440;2022-10-22T12:39:41;32.60;92.70
21246;DHT22;10781;50.928;4.440;2022-10-22T12:42:17;33.00;86.20
21246;DHT22;10781;50.928;4.440;2022-10-22T12:44:43;32.90;87.00
21246;DHT22;10781;50.928;4.440;2022-10-22T12:47:16;31.20;88.70
21246;DHT22;10781;50.928;4.440;2022-10-22T12:49:47;30.10;90.00
21246;DHT22;10781;50.928;4.440;2022-10-22T12:52:19;28.80;91.50
21246;DHT22;10781;50.928;4.440;2022-10-22T12:54:48;28.90;91.90
21246;DHT22;10781;50.928;4.440;2022-10-22T12:57:16;28.90;92.00
21246;DHT22;10781;50.928;4.440;2022-10-22T12:59:48;28.00;92.50
21246;DHT22;10781;50.928;4.440;2022-10-22T13:02:27;27.70;92.80
21246;DHT22;10781;50.928;4.440;2022-10-22T13:07:45;26.50;94.90
21246;DHT22;10781;50.928;4.440;2022-10-22T13:10:28;27.00;96.20
21246;DHT22;10781;50.928;4.440;2022-10-22T13:12:57;27.60;95.60
21246;DHT22;10781;50.928;4.440;2022-10-22T13:15:31;28.00;94.70
21246;DHT22;10781;50.928;4.440;2022-10-22T13:20:56;28.70;94.10
21246;DHT22;10781;50.928;4.440;2022-10-22T13:23:24;28.90;94.40
21246;DHT22;10781;50.928;4.440;2022-10-22T13:26:00;30.40;92.60
21246;DHT22;10781;50.928;4.440;2022-10-22T13:28:27;30.90;87.90
21246;DHT22;10781;50.928;4.440;2022-10-22T13:35:55;28.30;90.50
21246;DHT22;10781;50.928;4.440;2022-10-22T13:38:24;27.10;92.50
21246;DHT22;10781;50.928;4.440;2022-10-22T13:40:50;27.00;92.80
21246;DHT22;10781;50.928;4.440;2022-10-22T13:43:16;26.10;94.40
21246;DHT22;10781;50.928;4.440;2022-10-22T13:45:43;25.60;96.10
21246;DHT22;10781;50.928;4.440;2022-10-22T13:48:17;25.40;97.60
21246;DHT22;10781;50.928;4.440;2022-10-22T13:50:46;25.40;98.00
21246;DHT22;10781;50.928;4.440;2022-10-22T13:53:16;25.50;98.70
21246;DHT22;10781;50.928;4.440;2022-10-22T13:55:43;25.00;98.60
21246;DHT22;10781;50.928;4.440;2022-10-22T13:58:11;25.00;99.10
21246;DHT22;10781;50.928;4.440;2022-10-22T14:00:40;24.80;99.80
21246;DHT22;10781;50.928;4.440;2022-10-22T14:08:00;24.30;99.90
21246;DHT22;10781;50.928;4.440;2022-10-22T14:12:51;24.10;99.90
21246;DHT22;10781;50.928;4.440;2022-10-22T14:15:22;24.20;99.90
21246;DHT22;10781;50.928;4.440;2022-10-22T14:17:53;24.10;99.90
21246;DHT22;10781;50.928;4.440;2022-10-22T14:20:24;24.10;99.90
21246;DHT22;10781;50.928;4.440;2022-10-22T14:22:50;24.10;99.90
21246;DHT22;10781;50.928;4.440;2022-10-22T14:25:19;24.20;99.90
21246;DHT22;10781;50.928;4.440;2022-10-22T14:27:45;23.70;99.90
21246;DHT22;10781;50.928;4.440;2022-10-22T14:30:16;23.80;99.90
21246;DHT22;10781;50.928;4.440;2022-10-22T14:32:42;23.50;99.90
21246;DHT22;10781;50.928;4.440;2022-10-22T14:35:14;23.30;99.90
21246;DHT22;10781;50.928;4.440;2022-10-22T14:40:07;23.40;99.90
21246;DHT22;10781;50.928;4.440;2022-10-22T14:42:38;23.30;99.90
21246;DHT22;10781;50.928;4.440;2022-10-22T14:45:05;23.20;99.90
21246;DHT22;10781;50.928;4.440;2022-10-22T14:47:31;23.30;99.90
21246;DHT22;10781;50.928;4.440;2022-10-22T14:49:57;23.40;99.90
21246;DHT22;10781;50.928;4.440;2022-10-22T14:52:23;23.30;99.90
21246;DHT22;10781;50.928;4.440;2022-10-22T14:57:14;23.20;99.90
21246;DHT22;10781;50.928;4.440;2022-10-22T14:59:41;22.70;99.90
21246;DHT22;10781;50.928;4.440;2022-10-22T15:02:12;22.70;99.90
21246;DHT22;10781;50.928;4.440;2022-10-22T15:04:38;22.80;99.90
21246;DHT22;10781;50.928;4.440;2022-10-22T15:07:04;22.80;99.90
21246;DHT22;10781;50.928;4.440;2022-10-22T15:09:30;23.00;99.90
21246;DHT22;10781;50.928;4.440;2022-10-22T15:11:56;23.10;99.90
21246;DHT22;10781;50.928;4.440;2022-10-22T15:14:22;23.00;99.90
21246;DHT22;10781;50.928;4.440;2022-10-22T15:16:47;23.10;99.90
21246;DHT22;10781;50.928;4.440;2022-10-22T15:19:13;23.00;99.90
21246;DHT22;10781;50.928;4.440;2022-10-22T15:21:39;22.90;99.90
21246;DHT22;10781;50.928;4.440;2022-10-22T15:24:05;23.00;99.90
21246;DHT22;10781;50.928;4.440;2022-10-22T15:26:30;22.90;99.90
21246;DHT22;10781;50.928;4.440;2022-10-22T15:28:56;22.90;99.90
21246;DHT22;10781;50.928;4.440;2022-10-22T15:34:08;22.90;99.90
21246;DHT22;10781;50.928;4.440;2022-10-22T15:36:33;23.00;99.90
21246;DHT22;10781;50.928;4.440;2022-10-22T15:38:59;22.80;99.90
21246;DHT22;10781;50.928;4.440;2022-10-22T15:41:25;22.70;99.90
21246;DHT22;10781;50.928;4.440;2022-10-22T15:43:52;22.90;99.90
21246;DHT22;10781;50.928;4.440;2022-10-22T15:46:18;22.90;99.90
21246;DHT22;10781;50.928;4.440;2022-10-22T15:51:14;22.90;99.90
21246;DHT22;10781;50.928;4.440;2022-10-22T15:53:40;22.80;99.90
21246;DHT22;10781;50.928;4.440;2022-10-22T15:56:07;22.80;99.90
21246;DHT22;10781;50.928;4.440;2022-10-22T15:58:33;22.70;99.90
21246;DHT22;10781;50.928;4.440;2022-10-22T16:01:07;22.70;99.90
21246;DHT22;10781;50.928;4.440;2022-10-22T16:03:33;22.60;99.90
21246;DHT22;10781;50.928;4.440;2022-10-22T16:05:59;22.70;99.90
21246;DHT22;10781;50.928;4.440;2022-10-22T16:08:25;22.70;99.90
21246;DHT22;10781;50.928;4.440;2022-10-22T16:10:51;22.40;99.90
21246;DHT22;10781;50.928;4.440;2022-10-22T16:13:18;22.40;99.90
21246;DHT22;10781;50.928;4.440;2022-10-22T16:18:11;22.20;99.90
21246;DHT22;10781;50.928;4.440;2022-10-22T16:20:38;22.10;99.90
21246;DHT22;10781;50.928;4.440;2022-10-22T16:23:04;22.00;99.90
21246;DHT22;10781;50.928;4.440;2022-10-22T16:25:30;21.90;99.90
21246;DHT22;10781;50.928;4.440;2022-10-22T16:28:01;21.60;99.90
21246;DHT22;10781;50.928;4.440;2022-10-22T16:30:27;21.60;99.90
21246;DHT22;10781;50.928;4.440;2022-10-22T16:32:55;21.60;99.90
21246;DHT22;10781;50.928;4.440;2022-10-22T16:35:21;21.60;99.90
21246;DHT22;10781;50.928;4.440;2022-10-22T16:37:46;21.50;99.90
21246;DHT22;10781;50.928;4.440;2022-10-22T16:40:12;21.50;99.90
21246;DHT22;10781;50.928;4.440;2022-10-22T16:42:38;21.30;99.90
21246;DHT22;10781;50.928;4.440;2022-10-22T16:47:30;21.20;99.90
21246;DHT22;10781;50.928;4.440;2022-10-22T16:49:55;21.30;99.90
21246;DHT22;10781;50.928;4.440;2022-10-22T16:52:23;21.20;99.90
21246;DHT22;10781;50.928;4.440;2022-10-22T16:57:15;20.90;99.90
21246;DHT22;10781;50.928;4.440;2022-10-22T17:02:11;20.60;99.90
21246;DHT22;10781;50.928;4.440;2022-10-22T17:04:37;20.50;99.90
21246;DHT22;10781;50.928;4.440;2022-10-22T17:09:29;20.10;99.90
21246;DHT22;10781;50.928;4.440;2022-10-22T17:11:54;19.90;99.90
21246;DHT22;10781;50.928;4.440;2022-10-22T17:14:20;19.80;99.90
21246;DHT22;10781;50.928;4.440;2022-10-22T17:16:46;19.80;99.90
21246;DHT22;10781;50.928;4.440;2022-10-22T17:19:18;20.00;99.90
21246;DHT22;10781;50.928;4.440;2022-10-22T17:21:44;20.10;99.90
21246;DHT22;10781;50.928;4.440;2022-10-22T17:24:10;20.20;99.90
21246;DHT22;10781;50.928;4.440;2022-10-22T17:26:36;20.10;99.90
21246;DHT22;10781;50.928;4.440;2022-10-22T17:29:02;20.00;99.90
21246;DHT22;10781;50.928;4.440;2022-10-22T17:31:33;19.90;99.90
21246;DHT22;10781;50.928;4.440;2022-10-22T17:34:02;20.10;99.90
21246;DHT22;10781;50.928;4.440;2022-10-22T17:36:29;20.00;99.90
21246;DHT22;10781;50.928;4.440;2022-10-22T17:38:58;19.60;99.90
21246;DHT22;10781;50.928;4.440;2022-10-22T17:41:33;19.60;99.90
21246;DHT22;10781;50.928;4.440;2022-10-22T17:44:01;19.70;99.90
21246;DHT22;10781;50.928;4.440;2022-10-22T17:46:29;19.60;99.90
21246;DHT22;10781;50.928;4.440;2022-10-22T17:48:58;19.60;99.90
21246;DHT22;10781;50.928;4.440;2022-10-22T17:51:25;19.50;99.90
21246;DHT22;10781;50.928;4.440;2022-10-22T17:53:51;19.40;99.90